Barrett, North Carolina
Current Conditions -  °F | °C
As of 3:35 AM on Friday 28 Nov 2014 (Local Time) from KHLX Reporting Station
Light Snow Light Snow  
Wind Chill: 12°   Ceiling: 2100
Heat Index: 24°   Visibility: 10mi
Dew Point: 19°   Wind: 14mph
Humidity: 80%   Direction: 320°NW
Pressure: 30.2"   Gusts: 18mph
Location:  36.5243°N, 80.9743°W
Report Text: KHLX 280835Z AUTO 32012G16KT 10SM -SN OVC021 M04/M07 A3020 RMK AO2 T10451075
Loading
Personal Weather Stations






























Interactive Weather Map New forecast layout! Learn more

10-Day Weather Forecast

Advertisements
Track Severe Weather on mobile